Time;durP1;ratioP1;P1;durP2;ratioP2;P2;SDS_P1;SDS_P2;PMS_P1;PMS_P2;Temp;Humidity;BMP_temperature;BMP_pressure;BME280_temperature;BME280_humidity;BME280_pressure;Samples;Min_cycle;Max_cycle;Signal;HPM_P1;HPM_P2
2024/01/03 00:01:30;;;;;;;19.40;9.77;;;5.30;99.90;;;;;;5011282;28;20212;-72
2024/01/03 00:03:58;;;;;;;16.30;9.63;;;5.30;99.90;;;;;;5011378;28;20200;-72
2024/01/03 00:06:33;;;;;;;16.33;8.60;;;5.30;99.90;;;;;;5013709;28;20262;-74
2024/01/03 00:09:00;;;;;;;17.67;10.13;;;5.30;99.90;;;;;;5012764;28;20580;-76
2024/01/03 00:11:30;;;;;;;17.00;9.93;;;5.30;99.90;;;;;;5010676;28;20208;-75
2024/01/03 00:14:13;;;;;;;17.23;10.07;;;5.20;99.90;;;;;;5002846;28;20703;-75
2024/01/03 00:16:46;;;;;;;15.60;9.10;;;5.20;99.90;;;;;;4993750;28;20207;-74
2024/01/03 00:19:21;;;;;;;17.07;9.73;;;5.20;99.90;;;;;;5009909;28;20290;-73
2024/01/03 00:21:48;;;;;;;14.77;8.93;;;5.20;99.90;;;;;;5012458;28;20208;-73
2024/01/03 00:24:18;;;;;;;18.20;9.97;;;5.10;99.90;;;;;;5011426;28;20544;-72
2024/01/03 00:26:46;;;;;;;18.63;10.07;;;5.10;99.90;;;;;;4991962;28;20231;-74
2024/01/03 00:29:48;;;;;;;18.80;10.03;;;5.10;99.90;;;;;;5018210;28;21005;-72
2024/01/03 00:32:16;;;;;;;16.70;8.80;;;5.00;99.90;;;;;;5011322;28;20191;-72
2024/01/03 00:34:44;;;;;;;15.87;9.40;;;4.90;99.90;;;;;;5010053;28;20580;-70
2024/01/03 00:37:34;;;;;;;18.10;9.77;;;4.90;99.90;;;;;;5018333;28;20192;-71
2024/01/03 00:40:04;;;;;;;17.83;9.87;;;4.90;99.90;;;;;;4990645;28;20203;-71
2024/01/03 00:42:31;;;;;;;13.90;8.60;;;4.80;99.90;;;;;;5007720;28;20207;-72
2024/01/03 00:44:58;;;;;;;14.47;8.73;;;4.80;99.90;;;;;;5009467;28;20597;-71
2024/01/03 00:47:26;;;;;;;17.83;9.07;;;4.90;99.90;;;;;;5007673;28;20216;-70
2024/01/03 00:49:54;;;;;;;15.67;9.10;;;4.90;99.90;;;;;;5008646;28;20200;-72
2024/01/03 00:52:21;;;;;;;19.03;10.00;;;4.80;99.90;;;;;;4996817;28;20199;-71
2024/01/03 00:54:51;;;;;;;16.67;9.47;;;4.80;99.90;;;;;;5010033;28;20207;-71
2024/01/03 00:57:20;;;;;;;14.20;8.37;;;4.80;99.90;;;;;;4992857;28;20270;-71
2024/01/03 00:59:48;;;;;;;13.97;8.73;;;4.80;99.90;;;;;;4991100;28;20733;-71
2024/01/03 01:02:15;;;;;;;14.30;8.07;;;4.80;99.90;;;;;;4992906;28;20208;-72
2024/01/03 01:04:43;;;;;;;14.70;8.53;;;4.80;99.90;;;;;;4992426;28;20207;-71
2024/01/03 01:07:11;;;;;;;15.80;8.77;;;4.90;99.90;;;;;;4994946;28;20200;-71
2024/01/03 01:09:40;;;;;;;13.47;7.33;;;4.80;99.90;;;;;;4987055;28;20312;-72
2024/01/03 01:12:07;;;;;;;14.63;7.87;;;4.90;99.90;;;;;;4993628;28;20651;-71
2024/01/03 01:14:34;;;;;;;14.77;7.90;;;4.90;99.90;;;;;;5011476;28;20271;-72
2024/01/03 01:17:02;;;;;;;11.80;7.50;;;4.90;99.90;;;;;;5011139;28;20607;-72
2024/01/03 01:19:29;;;;;;;18.33;8.97;;;5.00;99.90;;;;;;5006268;28;20196;-73
2024/01/03 01:21:57;;;;;;;14.63;8.57;;;5.00;99.90;;;;;;4990883;28;20204;-71
2024/01/03 01:24:24;;;;;;;14.63;8.67;;;5.00;99.90;;;;;;5013114;28;20535;-72
2024/01/03 01:26:51;;;;;;;12.37;7.73;;;5.00;99.90;;;;;;4997155;28;20191;-73
2024/01/03 01:29:18;;;;;;;10.83;7.00;;;4.90;99.90;;;;;;4988294;28;20247;-71
2024/01/03 01:31:48;;;;;;;13.80;7.60;;;4.90;99.90;;;;;;5014000;28;20559;-71
2024/01/03 01:34:15;;;;;;;13.27;8.03;;;4.90;99.90;;;;;;4995685;28;20571;-72
2024/01/03 01:36:43;;;;;;;13.37;7.70;;;4.90;99.90;;;;;;5008349;28;21172;-72
2024/01/03 01:39:12;;;;;;;13.20;7.10;;;4.90;99.90;;;;;;5009461;28;20551;-73
2024/01/03 01:41:39;;;;;;;13.67;7.30;;;4.90;99.90;;;;;;4993553;28;20212;-73
2024/01/03 01:44:06;;;;;;;11.70;7.10;;;4.90;99.90;;;;;;5012957;28;20203;-74
2024/01/03 01:46:36;;;;;;;15.30;7.67;;;4.90;99.90;;;;;;4991123;28;20197;-74
2024/01/03 01:49:04;;;;;;;15.23;8.77;;;4.90;99.90;;;;;;4990899;28;20209;-73
2024/01/03 01:51:32;;;;;;;12.47;7.47;;;4.90;99.90;;;;;;5011193;28;20224;-73
2024/01/03 01:53:59;;;;;;;14.40;7.83;;;4.90;99.90;;;;;;4993132;28;20211;-72
2024/01/03 01:56:29;;;;;;;14.17;8.23;;;4.80;99.90;;;;;;5010494;28;20213;-71
2024/01/03 01:58:57;;;;;;;15.80;8.73;;;4.80;99.90;;;;;;5002487;28;20204;-70
2024/01/03 02:01:24;;;;;;;12.30;7.73;;;4.80;99.90;;;;;;4995916;28;20230;-71
2024/01/03 02:03:53;;;;;;;18.03;9.20;;;4.70;99.90;;;;;;5001008;28;20218;-70
2024/01/03 02:06:22;;;;;;;13.17;7.97;;;4.60;99.90;;;;;;5012982;28;20249;-70
2024/01/03 02:08:49;;;;;;;17.43;8.83;;;5.10;99.90;;;;;;4993743;28;20238;-71
2024/01/03 02:11:17;;;;;;;14.47;8.43;;;4.60;99.90;;;;;;4974717;28;20218;-72
2024/01/03 02:13:47;;;;;;;14.90;8.60;;;4.60;99.90;;;;;;5007807;28;20204;-71
2024/01/03 02:16:16;;;;;;;15.93;9.40;;;4.50;99.90;;;;;;4995815;28;20212;-72
2024/01/03 02:18:44;;;;;;;15.27;8.17;;;4.50;99.90;;;;;;5005729;28;20195;-70
2024/01/03 02:21:15;;;;;;;16.93;8.70;;;4.40;99.90;;;;;;5011643;28;20222;-72
2024/01/03 02:23:42;;;;;;;13.87;8.53;;;4.40;99.90;;;;;;4996032;28;20199;-71
2024/01/03 02:26:09;;;;;;;15.57;7.73;;;4.30;99.90;;;;;;4991237;28;20226;-72
2024/01/03 02:28:37;;;;;;;13.03;7.17;;;4.30;99.90;;;;;;5009065;28;20675;-72
2024/01/03 02:31:04;;;;;;;12.73;7.17;;;4.40;99.90;;;;;;5012199;28;20218;-71
2024/01/03 02:33:31;;;;;;;17.33;9.37;;;4.40;99.90;;;;;;5001533;28;20197;-71
2024/01/03 02:36:00;;;;;;;13.93;8.23;;;4.50;99.90;;;;;;5008930;28;20272;-74
2024/01/03 02:38:29;;;;;;;14.43;7.67;;;4.50;99.90;;;;;;5011714;28;20574;-74
2024/01/03 02:40:56;;;;;;;16.87;8.60;;;4.50;99.90;;;;;;5003737;28;20610;-75
2024/01/03 02:43:23;;;;;;;17.20;9.73;;;4.50;99.90;;;;;;5011775;28;20208;-73
2024/01/03 02:45:50;;;;;;;17.53;9.97;;;4.50;99.90;;;;;;4994502;28;20259;-73
2024/01/03 02:48:17;;;;;;;15.37;8.57;;;4.50;99.90;;;;;;5006901;28;20207;-74
2024/01/03 02:50:48;;;;;;;14.60;8.27;;;4.50;99.90;;;;;;4994770;28;20230;-78
2024/01/03 02:53:17;;;;;;;15.10;8.00;;;4.50;99.90;;;;;;4996327;28;20213;-72
2024/01/03 02:55:45;;;;;;;14.70;8.27;;;4.50;99.90;;;;;;5005179;28;20193;-72
2024/01/03 02:58:12;;;;;;;12.97;7.73;;;4.40;99.90;;;;;;5017771;28;20203;-72
2024/01/03 03:00:40;;;;;;;15.30;8.40;;;4.40;99.90;;;;;;5008822;28;20202;-72
2024/01/03 03:03:08;;;;;;;15.17;7.90;;;4.40;99.90;;;;;;4990276;28;20226;-72
2024/01/03 03:05:35;;;;;;;12.87;7.70;;;4.40;99.90;;;;;;5006478;28;20207;-72
2024/01/03 03:08:02;;;;;;;15.27;8.60;;;4.40;99.90;;;;;;4994942;28;20663;-72
2024/01/03 03:10:29;;;;;;;17.03;9.17;;;4.40;99.90;;;;;;4988642;28;21519;-73
2024/01/03 03:12:57;;;;;;;16.60;8.67;;;4.40;99.90;;;;;;4990928;28;20226;-73
2024/01/03 03:15:25;;;;;;;14.07;8.37;;;4.40;99.90;;;;;;5009193;28;20187;-73
2024/01/03 03:17:52;;;;;;;17.27;8.37;;;4.30;99.90;;;;;;4992092;28;20279;-72
2024/01/03 03:20:19;;;;;;;16.53;9.13;;;4.30;99.90;;;;;;5002847;28;20535;-73
2024/01/03 03:22:46;;;;;;;16.13;8.83;;;4.30;99.90;;;;;;5011156;28;20218;-72
2024/01/03 03:25:18;;;;;;;13.33;7.50;;;4.30;99.90;;;;;;5002494;28;20207;-73
2024/01/03 03:27:45;;;;;;;14.47;8.07;;;4.30;99.90;;;;;;4989842;28;20286;-74
2024/01/03 03:30:14;;;;;;;10.33;6.10;;;4.30;99.90;;;;;;4991868;28;20231;-75
2024/01/03 03:32:44;;;;;;;12.83;7.23;;;4.30;99.90;;;;;;5000914;28;20203;-74
2024/01/03 03:35:11;;;;;;;11.93;7.13;;;4.40;99.90;;;;;;5012332;28;20563;-75
2024/01/03 03:37:39;;;;;;;17.30;8.47;;;4.40;99.90;;;;;;4996346;28;20210;-75
2024/01/03 03:40:08;;;;;;;13.67;8.27;;;4.30;99.90;;;;;;4993292;28;20286;-75
2024/01/03 03:42:37;;;;;;;12.77;7.30;;;4.40;99.90;;;;;;5013017;28;20222;-75
2024/01/03 03:45:05;;;;;;;14.47;7.13;;;4.40;99.90;;;;;;4993155;28;20235;-75
2024/01/03 03:47:34;;;;;;;11.27;7.10;;;4.40;99.90;;;;;;5003203;28;20278;-75
2024/01/03 03:50:01;;;;;;;11.10;6.37;;;4.40;99.90;;;;;;5002966;28;20653;-74
2024/01/03 03:52:28;;;;;;;10.93;6.77;;;4.50;99.90;;;;;;4994709;28;20196;-74
2024/01/03 03:54:55;;;;;;;12.37;6.97;;;4.50;99.90;;;;;;4991317;28;20295;-74
2024/01/03 03:57:22;;;;;;;10.87;6.83;;;4.60;99.90;;;;;;4993670;28;20559;-75
2024/01/03 03:59:49;;;;;;;13.80;7.90;;;4.60;99.90;;;;;;4988822;28;20208;-74
2024/01/03 04:02:17;;;;;;;10.80;6.77;;;4.60;99.90;;;;;;5009814;28;20213;-75
2024/01/03 04:04:45;;;;;;;14.27;7.20;;;4.60;99.90;;;;;;5010015;28;20284;-74
2024/01/03 04:07:13;;;;;;;11.80;6.93;;;4.60;99.90;;;;;;5000677;28;20196;-74
2024/01/03 04:09:43;;;;;;;11.63;7.10;;;4.60;99.90;;;;;;5006541;28;20276;-73
2024/01/03 04:12:11;;;;;;;9.50;5.93;;;4.60;99.90;;;;;;4999477;28;20226;-73
2024/01/03 04:14:38;;;;;;;11.87;7.30;;;4.60;99.90;;;;;;5010811;28;20196;-74
2024/01/03 04:17:06;;;;;;;13.57;7.53;;;4.60;99.90;;;;;;5007965;28;20271;-73
2024/01/03 04:19:35;;;;;;;11.33;6.87;;;4.70;99.90;;;;;;5010970;28;20257;-74
2024/01/03 04:22:05;;;;;;;14.63;7.90;;;4.60;99.90;;;;;;5010917;28;20212;-73
2024/01/03 04:24:32;;;;;;;12.23;6.77;;;4.70;99.90;;;;;;5006405;28;20205;-73
2024/01/03 04:26:59;;;;;;;13.57;7.50;;;4.60;99.90;;;;;;5009615;28;20200;-75
2024/01/03 04:29:26;;;;;;;11.47;6.80;;;4.60;99.90;;;;;;5011632;28;20212;-75
2024/01/03 04:31:53;;;;;;;10.37;6.40;;;4.60;99.90;;;;;;5002516;28;20207;-74
2024/01/03 04:34:20;;;;;;;13.53;7.50;;;4.60;99.90;;;;;;5014309;28;20206;-73
2024/01/03 04:36:47;;;;;;;15.27;8.30;;;4.60;99.90;;;;;;5010413;28;20644;-73
2024/01/03 04:39:17;;;;;;;11.03;6.37;;;4.50;99.90;;;;;;4991555;28;20269;-73
2024/01/03 04:41:44;;;;;;;8.93;5.77;;;4.50;99.90;;;;;;4997123;28;20194;-74
2024/01/03 04:44:11;;;;;;;11.60;6.97;;;4.50;99.90;;;;;;4989615;28;20331;-74
2024/01/03 04:46:38;;;;;;;12.93;7.83;;;4.50;99.90;;;;;;5012757;28;20193;-75
2024/01/03 04:49:05;;;;;;;11.50;7.13;;;4.50;99.90;;;;;;5004820;28;20203;-74
2024/01/03 04:51:33;;;;;;;12.17;6.80;;;4.50;99.90;;;;;;5001655;28;20571;-75
2024/01/03 04:54:07;;;;;;;15.60;8.43;;;4.50;99.90;;;;;;5012472;28;20200;-74
2024/01/03 04:56:36;;;;;;;15.17;8.07;;;4.50;99.90;;;;;;5005936;28;20279;-74
2024/01/03 04:59:03;;;;;;;10.87;6.27;;;4.50;99.90;;;;;;4996621;28;20606;-74
2024/01/03 05:01:31;;;;;;;11.67;6.50;;;4.50;99.90;;;;;;4995835;28;20636;-75
2024/01/03 05:03:59;;;;;;;12.27;6.70;;;4.50;99.90;;;;;;5022044;28;20211;-74
2024/01/03 05:06:27;;;;;;;12.37;7.53;;;4.50;99.90;;;;;;4991751;28;20295;-74
2024/01/03 05:08:54;;;;;;;10.13;6.53;;;4.50;99.90;;;;;;4997779;28;20605;-75
2024/01/03 05:11:21;;;;;;;13.87;7.37;;;4.50;99.90;;;;;;5015593;28;20198;-74
2024/01/03 05:13:49;;;;;;;11.00;6.23;;;4.40;99.90;;;;;;5000265;28;20214;-74
2024/01/03 05:16:17;;;;;;;10.77;6.50;;;4.40;99.90;;;;;;5011206;28;20281;-75
2024/01/03 05:18:49;;;;;;;10.70;6.50;;;4.40;99.90;;;;;;5012456;28;20196;-76
2024/01/03 05:21:16;;;;;;;11.80;7.07;;;4.30;99.90;;;;;;4996400;28;20202;-74
2024/01/03 05:23:43;;;;;;;15.57;7.00;;;4.40;99.90;;;;;;5010999;28;20206;-74
2024/01/03 05:26:11;;;;;;;10.97;6.47;;;4.30;99.90;;;;;;5013435;28;20191;-74
2024/01/03 05:28:40;;;;;;;12.13;7.00;;;4.30;99.90;;;;;;5012404;28;20215;-75
2024/01/03 05:31:08;;;;;;;13.67;7.17;;;4.30;99.90;;;;;;5013269;28;20199;-72
2024/01/03 05:33:35;;;;;;;11.97;6.80;;;4.30;99.90;;;;;;5015647;28;20226;-72
2024/01/03 05:36:04;;;;;;;11.80;6.33;;;4.30;99.90;;;;;;4996660;28;20207;-72
2024/01/03 05:38:31;;;;;;;14.77;7.07;;;4.30;99.90;;;;;;5007068;28;20196;-74
2024/01/03 05:40:58;;;;;;;12.63;6.90;;;4.20;99.90;;;;;;4990700;28;20203;-73
2024/01/03 05:43:29;;;;;;;10.77;6.43;;;4.20;99.90;;;;;;5011881;28;20219;-74
2024/01/03 05:45:56;;;;;;;9.80;5.80;;;4.10;99.90;;;;;;5009433;28;20726;-73
2024/01/03 05:48:27;;;;;;;8.47;5.40;;;4.10;99.90;;;;;;5008424;28;20199;-73
2024/01/03 05:50:54;;;;;;;14.07;7.00;;;4.10;99.90;;;;;;5012698;28;20659;-74
2024/01/03 05:53:21;;;;;;;12.17;7.17;;;4.10;99.90;;;;;;5007899;28;20195;-73
2024/01/03 05:55:48;;;;;;;9.43;6.40;;;4.10;99.90;;;;;;5017579;28;20199;-73
2024/01/03 05:58:15;;;;;;;11.47;6.47;;;4.00;99.90;;;;;;5005829;28;20194;-74
2024/01/03 06:00:42;;;;;;;9.77;5.80;;;4.10;99.90;;;;;;5007588;28;20539;-74
2024/01/03 06:03:09;;;;;;;10.37;6.20;;;4.10;99.90;;;;;;5018570;28;20745;-74
2024/01/03 06:05:38;;;;;;;10.40;5.87;;;4.10;99.90;;;;;;5013736;28;20208;-73
2024/01/03 06:08:06;;;;;;;8.70;5.33;;;4.00;99.90;;;;;;5009958;28;20187;-74
2024/01/03 06:10:33;;;;;;;10.57;6.13;;;4.00;99.90;;;;;;4992400;28;20315;-74
2024/01/03 06:13:03;;;;;;;8.77;5.87;;;4.10;99.90;;;;;;5011954;28;20191;-71
2024/01/03 06:15:34;;;;;;;9.67;5.87;;;4.00;99.90;;;;;;5011853;28;20275;-75
2024/01/03 06:18:03;;;;;;;11.37;6.20;;;4.00;99.90;;;;;;4999741;28;20231;-75
2024/01/03 06:20:30;;;;;;;11.47;5.70;;;4.00;99.90;;;;;;5011678;28;20193;-75
2024/01/03 06:22:59;;;;;;;7.30;5.20;;;4.00;99.90;;;;;;4997147;28;20854;-74
2024/01/03 06:25:26;;;;;;;9.20;4.90;;;4.00;99.90;;;;;;4993699;28;20198;-74
2024/01/03 06:27:59;;;;;;;8.33;5.00;;;4.00;99.90;;;;;;5011392;28;20199;-74
2024/01/03 06:30:26;;;;;;;8.10;5.03;;;4.00;99.90;;;;;;4998253;28;20195;-77
2024/01/03 06:32:54;;;;;;;6.47;4.67;;;4.00;99.90;;;;;;5009829;28;20200;-77
2024/01/03 06:35:21;;;;;;;5.73;4.43;;;4.00;99.90;;;;;;5012852;28;20203;-74
2024/01/03 06:37:48;;;;;;;7.10;5.10;;;4.00;99.90;;;;;;5012431;28;20199;-75
2024/01/03 06:40:16;;;;;;;5.80;4.27;;;4.00;99.90;;;;;;5009918;28;20190;-74
2024/01/03 06:42:44;;;;;;;7.23;4.53;;;4.00;99.90;;;;;;5008781;28;20253;-74
2024/01/03 06:45:11;;;;;;;6.53;4.40;;;4.00;99.90;;;;;;5014529;28;20238;-74
2024/01/03 06:47:43;;;;;;;7.87;4.90;;;4.00;99.90;;;;;;4992742;28;21030;-74
2024/01/03 06:50:13;;;;;;;6.63;4.50;;;4.00;99.90;;;;;;5006075;28;20217;-73
2024/01/03 06:52:40;;;;;;;5.33;4.27;;;4.00;99.90;;;;;;5010698;28;20211;-72
2024/01/03 06:55:09;;;;;;;4.47;3.90;;;3.90;99.90;;;;;;5005496;28;20202;-73
2024/01/03 06:57:48;;;;;;;6.57;4.43;;;4.00;99.90;;;;;;4992531;28;20225;-72
2024/01/03 07:00:16;;;;;;;6.70;4.67;;;3.90;99.90;;;;;;4980687;28;20276;-72
2024/01/03 07:02:43;;;;;;;6.40;4.23;;;3.90;99.90;;;;;;4989161;28;20536;-73
2024/01/03 07:05:10;;;;;;;7.27;4.73;;;3.90;99.90;;;;;;5006233;28;20296;-73
2024/01/03 07:07:37;;;;;;;6.13;4.50;;;4.00;99.90;;;;;;5009741;28;20211;-72
2024/01/03 07:10:05;;;;;;;6.30;4.50;;;3.90;99.90;;;;;;5008474;28;20203;-72
2024/01/03 07:12:33;;;;;;;5.03;3.77;;;3.90;99.90;;;;;;4993863;28;20207;-72
2024/01/03 07:15:01;;;;;;;5.37;4.27;;;3.90;99.90;;;;;;4998169;28;20233;-74
2024/01/03 07:17:28;;;;;;;5.20;3.97;;;3.90;99.90;;;;;;5009576;28;20290;-73
2024/01/03 07:19:58;;;;;;;6.10;4.03;;;3.90;99.90;;;;;;5004859;28;20239;-73
2024/01/03 07:22:25;;;;;;;5.57;3.60;;;3.90;99.90;;;;;;4990634;28;20717;-73
2024/01/03 07:24:52;;;;;;;6.73;4.53;;;3.90;99.90;;;;;;5008154;28;20547;-73
2024/01/03 07:27:23;;;;;;;8.07;5.17;;;3.90;99.90;;;;;;5007971;28;20211;-72
2024/01/03 07:29:51;;;;;;;5.37;4.10;;;4.00;99.90;;;;;;5006003;28;20210;-73
2024/01/03 07:32:19;;;;;;;6.63;4.90;;;3.90;99.90;;;;;;5008591;28;20204;-72
2024/01/03 07:34:49;;;;;;;5.70;4.50;;;3.90;99.90;;;;;;5008556;28;20584;-72
2024/01/03 07:37:23;;;;;;;6.40;4.50;;;3.90;99.90;;;;;;4991520;28;20681;-74
2024/01/03 07:39:53;;;;;;;4.93;3.90;;;3.90;99.90;;;;;;5005014;28;20654;-73
2024/01/03 07:42:21;;;;;;;3.57;3.27;;;4.50;99.90;;;;;;4991484;28;20226;-73
2024/01/03 07:44:48;;;;;;;5.40;4.00;;;3.90;99.90;;;;;;4999184;28;20242;-73
2024/01/03 07:47:15;;;;;;;6.37;4.27;;;3.90;99.90;;;;;;5008033;28;20199;-74
2024/01/03 07:49:44;;;;;;;5.83;4.20;;;4.00;99.90;;;;;;4989226;28;20202;-73
2024/01/03 07:52:13;;;;;;;6.90;4.73;;;4.00;99.90;;;;;;5008990;28;20678;-73
2024/01/03 07:54:40;;;;;;;8.77;5.53;;;4.00;99.90;;;;;;5006979;28;20212;-72
2024/01/03 07:57:10;;;;;;;6.80;5.10;;;4.00;99.90;;;;;;5009989;28;20206;-73
2024/01/03 07:59:44;;;;;;;8.40;5.50;;;4.00;99.90;;;;;;4998053;28;20219;-73
2024/01/03 08:02:12;;;;;;;9.33;5.67;;;4.00;99.90;;;;;;4989541;28;20213;-74
2024/01/03 08:04:43;;;;;;;8.30;5.70;;;3.90;99.90;;;;;;4991525;28;20222;-73
2024/01/03 08:07:10;;;;;;;6.93;5.33;;;3.90;99.90;;;;;;5009230;28;20198;-73
2024/01/03 08:09:39;;;;;;;6.90;4.63;;;3.20;99.90;;;;;;5003099;28;20685;-73
2024/01/03 08:12:08;;;;;;;6.67;4.70;;;3.80;99.90;;;;;;4996357;28;20557;-73
2024/01/03 08:14:36;;;;;;;6.90;4.83;;;3.80;99.90;;;;;;5007978;28;20191;-75
2024/01/03 08:17:05;;;;;;;8.33;5.40;;;3.80;99.90;;;;;;5001548;28;20214;-73
2024/01/03 08:19:32;;;;;;;8.53;5.30;;;3.80;99.90;;;;;;5010319;28;20575;-75
2024/01/03 08:22:04;;;;;;;8.67;5.60;;;3.80;99.90;;;;;;4992917;28;20289;-74
2024/01/03 08:24:37;;;;;;;9.27;5.47;;;3.80;99.90;;;;;;4989837;28;20275;-73
2024/01/03 08:27:09;;;;;;;9.63;5.17;;;3.80;99.90;;;;;;4986785;28;20205;-74
2024/01/03 08:29:39;;;;;;;6.20;4.70;;;3.80;99.90;;;;;;5010700;28;20562;-75
2024/01/03 08:32:09;;;;;;;6.87;4.77;;;3.80;99.90;;;;;;5013531;28;20194;-74
2024/01/03 08:34:36;;;;;;;9.90;5.40;;;3.20;99.90;;;;;;4986442;28;20206;-74
2024/01/03 08:37:12;;;;;;;8.13;5.43;;;3.80;99.90;;;;;;5019838;28;20256;-74
2024/01/03 08:39:40;;;;;;;9.63;5.60;;;3.80;99.90;;;;;;5010131;28;20230;-74
2024/01/03 08:42:08;;;;;;;8.60;5.27;;;3.80;99.90;;;;;;5003975;28;20275;-74
2024/01/03 08:44:35;;;;;;;6.53;4.63;;;3.80;99.90;;;;;;5011549;28;20623;-74
2024/01/03 08:47:02;;;;;;;8.87;5.00;;;3.80;99.90;;;;;;4995628;28;20737;-74
2024/01/03 08:49:30;;;;;;;5.93;4.73;;;3.80;99.90;;;;;;4993137;28;20194;-74
2024/01/03 08:51:57;;;;;;;8.03;5.50;;;3.80;99.90;;;;;;4998262;28;20282;-75
2024/01/03 08:54:29;;;;;;;7.67;5.17;;;3.90;99.90;;;;;;5024354;28;21503;-74
2024/01/03 08:56:56;;;;;;;10.50;6.00;;;3.90;99.90;;;;;;5006047;28;20591;-73
2024/01/03 08:59:23;;;;;;;7.00;4.60;;;3.80;99.90;;;;;;5010822;28;20209;-74
2024/01/03 09:01:53;;;;;;;8.30;5.33;;;3.80;99.90;;;;;;5010836;28;20191;-73
2024/01/03 09:04:20;;;;;;;7.93;5.67;;;3.80;99.90;;;;;;5002573;28;20204;-75
2024/01/03 09:06:52;;;;;;;12.83;5.30;;;3.80;99.90;;;;;;4995816;28;20198;-75
2024/01/03 09:09:19;;;;;;;6.77;4.90;;;3.70;99.90;;;;;;4993979;28;20323;-75
2024/01/03 09:11:49;;;;;;;8.07;5.70;;;3.70;99.90;;;;;;5012818;28;20191;-74
2024/01/03 09:14:17;;;;;;;11.70;6.53;;;3.70;99.90;;;;;;5010418;28;20671;-74
2024/01/03 09:16:44;;;;;;;7.83;5.20;;;3.80;99.90;;;;;;5007033;28;20249;-75
2024/01/03 09:19:16;;;;;;;8.33;5.30;;;3.70;99.90;;;;;;4991063;28;20548;-75
2024/01/03 09:21:47;;;;;;;7.57;4.40;;;3.80;99.90;;;;;;5012085;28;20199;-74
2024/01/03 09:24:18;;;;;;;8.97;5.17;;;3.80;99.90;;;;;;5003075;28;20309;-75
2024/01/03 09:26:47;;;;;;;8.70;5.57;;;4.10;99.90;;;;;;5006102;28;20566;-75
2024/01/03 09:29:15;;;;;;;9.47;6.33;;;3.90;99.90;;;;;;5010814;28;20206;-73
2024/01/03 09:31:46;;;;;;;10.27;6.50;;;3.80;99.90;;;;;;4993989;28;20223;-74
2024/01/03 09:34:15;;;;;;;10.40;6.27;;;3.80;99.90;;;;;;5007369;28;20198;-74
2024/01/03 09:36:42;;;;;;;8.20;5.27;;;3.80;99.90;;;;;;4991638;28;20234;-73
2024/01/03 09:39:09;;;;;;;7.70;5.60;;;3.70;99.90;;;;;;4989286;28;20218;-73
2024/01/03 09:41:37;;;;;;;10.87;6.00;;;3.70;99.90;;;;;;5008770;28;20383;-74
2024/01/03 09:44:09;;;;;;;9.03;5.37;;;3.70;99.90;;;;;;4992112;28;20591;-75
2024/01/03 09:46:37;;;;;;;6.87;4.73;;;3.70;99.90;;;;;;5003741;28;20314;-74
2024/01/03 09:49:10;;;;;;;11.07;6.23;;;3.80;99.90;;;;;;5010113;28;20210;-74
2024/01/03 09:51:37;;;;;;;7.93;5.33;;;3.80;99.90;;;;;;5009940;28;20221;-75
2024/01/03 09:54:07;;;;;;;11.33;6.40;;;3.90;99.90;;;;;;4996930;28;20276;-75
2024/01/03 09:56:42;;;;;;;6.97;4.50;;;3.90;99.90;;;;;;5013842;28;20267;-75
2024/01/03 09:59:09;;;;;;;8.13;5.37;;;3.90;99.90;;;;;;5007691;28;20260;-76
2024/01/03 10:01:38;;;;;;;8.00;5.90;;;4.00;99.90;;;;;;4988947;28;20191;-75
2024/01/03 10:04:06;;;;;;;11.47;5.93;;;4.00;99.90;;;;;;5009515;28;20216;-75
2024/01/03 10:06:50;;;;;;;6.17;5.00;;;4.00;99.90;;;;;;5010642;28;20205;-74
2024/01/03 10:09:20;;;;;;;8.90;5.40;;;4.00;99.90;;;;;;5001849;28;20202;-76
2024/01/03 10:11:51;;;;;;;6.97;4.77;;;4.00;99.90;;;;;;4988603;28;20638;-75
2024/01/03 10:14:19;;;;;;;7.23;4.90;;;4.00;99.90;;;;;;4992093;28;20203;-75
2024/01/03 10:16:48;;;;;;;6.80;4.97;;;4.00;99.90;;;;;;5006431;28;20200;-74
2024/01/03 10:19:19;;;;;;;7.67;5.33;;;4.00;99.90;;;;;;4997968;28;20257;-74
2024/01/03 10:21:49;;;;;;;9.03;5.80;;;4.00;99.90;;;;;;5007348;28;20660;-74
2024/01/03 10:24:18;;;;;;;9.37;5.87;;;4.00;99.90;;;;;;5003090;28;20246;-75
2024/01/03 10:26:46;;;;;;;8.93;6.00;;;4.30;99.90;;;;;;4995611;28;20196;-75
2024/01/03 10:29:14;;;;;;;8.77;5.10;;;4.10;99.90;;;;;;4995393;28;20207;-74
2024/01/03 10:31:42;;;;;;;8.17;5.57;;;4.10;99.90;;;;;;4996914;28;20675;-75
2024/01/03 10:34:16;;;;;;;7.37;5.17;;;4.10;99.90;;;;;;4992603;28;20210;-74
2024/01/03 10:36:45;;;;;;;7.83;5.53;;;4.20;99.90;;;;;;4992669;28;20206;-74
2024/01/03 10:39:15;;;;;;;7.23;4.87;;;4.20;99.90;;;;;;4980604;28;21035;-74
2024/01/03 10:41:45;;;;;;;8.57;5.83;;;4.20;99.90;;;;;;4997487;28;20202;-74
2024/01/03 10:44:14;;;;;;;7.27;5.07;;;4.20;99.90;;;;;;5010641;28;20216;-75
2024/01/03 10:46:44;;;;;;;12.10;6.00;;;4.20;99.90;;;;;;4998009;28;20231;-74
2024/01/03 10:49:12;;;;;;;8.73;5.47;;;4.10;99.90;;;;;;4991947;28;20207;-74
2024/01/03 10:51:41;;;;;;;7.10;5.27;;;4.10;99.90;;;;;;5010707;28;20193;-74
2024/01/03 10:54:08;;;;;;;8.40;5.30;;;4.00;99.90;;;;;;4989108;28;20629;-73
2024/01/03 10:56:36;;;;;;;7.40;4.63;;;3.90;99.90;;;;;;5018892;28;20804;-74
2024/01/03 10:59:05;;;;;;;6.93;4.53;;;3.80;99.90;;;;;;5005956;28;20532;-73
2024/01/03 11:01:36;;;;;;;8.13;5.07;;;3.80;99.90;;;;;;5016467;28;20206;-74
2024/01/03 11:04:11;;;;;;;7.73;4.90;;;3.80;99.90;;;;;;5007743;28;20773;-74
2024/01/03 11:06:53;;;;;;;5.57;4.17;;;3.80;99.90;;;;;;5005694;28;20201;-74
2024/01/03 11:09:21;;;;;;;7.43;5.23;;;3.80;99.90;;;;;;4992258;28;20260;-74
2024/01/03 11:11:47;;;;;;;8.87;5.27;;;3.90;99.90;;;;;;4992117;28;20210;-74
2024/01/03 11:14:24;;;;;;;8.27;5.73;;;3.90;99.90;;;;;;4994890;28;20364;-74
2024/01/03 11:16:53;;;;;;;6.50;4.37;;;3.90;99.90;;;;;;5010433;28;20677;-75
2024/01/03 11:19:29;;;;;;;5.73;4.00;;;3.90;99.90;;;;;;4988534;28;20215;-75
2024/01/03 11:22:00;;;;;;;6.47;4.40;;;3.90;99.90;;;;;;5006092;28;20206;-74
2024/01/03 11:24:54;;;;;;;10.47;6.23;;;3.90;99.90;;;;;;5006027;28;20211;-74
2024/01/03 11:27:25;;;;;;;18.80;9.20;;;4.00;99.90;;;;;;5005256;28;20207;-76
2024/01/03 11:29:54;;;;;;;19.90;8.87;;;4.00;99.90;;;;;;4990556;28;20518;-74
2024/01/03 11:32:42;;;;;;;19.23;9.40;;;4.00;99.90;;;;;;5002298;28;20250;-73
2024/01/03 11:35:12;;;;;;;14.87;8.20;;;4.10;99.90;;;;;;4999920;28;20721;-74
2024/01/03 11:37:42;;;;;;;12.33;7.00;;;4.10;99.90;;;;;;5007570;28;20206;-74
2024/01/03 11:40:20;;;;;;;6.77;5.20;;;4.10;99.90;;;;;;5011889;28;20253;-76
2024/01/03 11:42:48;;;;;;;8.17;5.27;;;4.10;99.90;;;;;;4988650;28;20282;-74
2024/01/03 11:45:22;;;;;;;5.70;4.40;;;4.10;99.90;;;;;;5012054;28;20278;-73
2024/01/03 11:47:50;;;;;;;8.43;5.63;;;4.10;99.90;;;;;;5010203;28;20195;-74
2024/01/03 11:50:19;;;;;;;8.23;5.03;;;4.10;99.90;;;;;;5001281;28;20278;-74
2024/01/03 11:52:49;;;;;;;9.13;5.40;;;4.10;99.90;;;;;;5011392;28;20257;-75
2024/01/03 11:55:18;;;;;;;8.80;6.07;;;4.10;99.90;;;;;;5006548;28;20216;-75
2024/01/03 11:57:46;;;;;;;7.73;4.63;;;4.10;99.90;;;;;;5006755;28;20309;-74
2024/01/03 12:00:17;;;;;;;4.83;3.70;;;4.10;99.90;;;;;;4991901;28;20294;-74
2024/01/03 12:02:54;;;;;;;8.20;5.30;;;4.10;99.90;;;;;;5008870;28;20578;-74
2024/01/03 12:05:21;;;;;;;5.73;4.43;;;4.10;99.90;;;;;;5006674;28;20712;-75
2024/01/03 12:07:51;;;;;;;6.07;4.37;;;4.10;99.90;;;;;;5005043;28;20608;-74
2024/01/03 12:10:20;;;;;;;5.63;4.80;;;4.10;99.90;;;;;;5005150;28;20743;-74
2024/01/03 12:12:51;;;;;;;7.00;4.40;;;5.50;99.90;;;;;;4987891;28;20836;-74
2024/01/03 12:15:24;;;;;;;7.07;4.93;;;4.10;99.90;;;;;;5012785;28;20190;-74
2024/01/03 12:17:52;;;;;;;7.83;4.80;;;4.10;99.90;;;;;;4987575;28;20572;-74
2024/01/03 12:20:22;;;;;;;4.60;3.87;;;4.10;99.90;;;;;;5009663;28;20191;-74
2024/01/03 12:22:51;;;;;;;4.17;3.77;;;4.00;99.90;;;;;;4995327;28;20251;-74
2024/01/03 12:25:19;;;;;;;6.43;4.60;;;4.00;99.90;;;;;;4999635;28;20226;-73
2024/01/03 12:27:46;;;;;;;4.97;4.07;;;4.00;99.90;;;;;;5006134;28;20277;-73
2024/01/03 12:30:15;;;;;;;6.53;4.53;;;4.10;99.90;;;;;;4997830;28;20238;-74
2024/01/03 12:32:43;;;;;;;5.40;4.07;;;4.10;99.90;;;;;;4989002;28;20210;-74
2024/01/03 12:35:12;;;;;;;8.50;5.20;;;4.10;99.90;;;;;;5009392;28;20299;-74
2024/01/03 12:37:47;;;;;;;11.63;6.47;;;4.10;99.90;;;;;;4992631;28;20194;-75
2024/01/03 12:40:17;;;;;;;12.77;7.30;;;4.70;99.90;;;;;;5000704;28;20209;-75
2024/01/03 12:42:45;;;;;;;10.00;6.40;;;4.10;99.90;;;;;;5011377;28;20206;-75
2024/01/03 12:45:12;;;;;;;16.40;7.10;;;4.10;99.90;;;;;;5009876;28;20222;-74
2024/01/03 12:47:41;;;;;;;9.40;5.77;;;4.10;99.90;;;;;;4992647;28;20570;-75
2024/01/03 12:50:09;;;;;;;9.90;5.50;;;4.10;99.90;;;;;;5000585;28;20278;-74
2024/01/03 12:52:37;;;;;;;13.43;7.33;;;4.10;99.90;;;;;;5015832;28;20202;-74
2024/01/03 12:55:05;;;;;;;10.73;5.80;;;4.00;99.90;;;;;;5000883;28;20594;-74
2024/01/03 12:57:34;;;;;;;11.97;6.27;;;4.00;99.90;;;;;;5016994;28;20203;-74
2024/01/03 13:00:01;;;;;;;14.30;7.03;;;4.00;99.90;;;;;;5012094;28;20202;-74